Terminal Aerodrome Forecast
Issued by NWS Goodland, KS

Home | Current Version | Previous Version | Text Only | Print | Product List | Glossary On
Versions: 1 2 3 4 5 6 7 8 9 10 11 12 13 14 15 16 17
000
FTUS43 KGLD 131100
TAFGLD
TAF
KGLD 131128Z 1312/1412 VRB06KT P6SM SCT250
     FM132000 VRB03KT P6SM SCT060
     FM140000 03005KT P6SM VCTS SCT060CB
     FM140400 VRB03KT P6SM SCT100=

USA.gov is the U.S. government's official web portal to all federal, state and local government web resources and services.